Time;durP1;ratioP1;P1;durP2;ratioP2;P2;SDS_P1;SDS_P2;PMS_P1;PMS_P2;Temp;Humidity;BMP_temperature;BMP_pressure;BME280_temperature;BME280_humidity;BME280_pressure;Samples;Min_cycle;Max_cycle;Signal;HPM_P1;HPM_P2
2023/03/26 00:01:04;;;;;;;6.07;1.60;;;7.90;99.90;;;;;;5016591;28;20179;-82
2023/03/26 00:03:32;;;;;;;5.70;1.90;;;7.90;99.90;;;;;;5015046;28;20215;-82
2023/03/26 00:06:06;;;;;;;3.57;1.50;;;7.80;99.90;;;;;;5016805;28;20186;-82
2023/03/26 00:08:33;;;;;;;3.23;1.53;;;7.90;99.90;;;;;;5016640;28;20195;-82
2023/03/26 00:10:59;;;;;;;2.50;1.37;;;7.80;99.90;;;;;;5015093;28;20676;-82
2023/03/26 00:13:25;;;;;;;1.60;1.30;;;7.80;99.90;;;;;;5016400;28;20175;-82
2023/03/26 00:18:30;;;;;;;6.03;1.80;;;7.90;99.90;;;;;;5272885;22;20731;-81
2023/03/26 00:20:57;;;;;;;2.73;1.63;;;7.90;99.90;;;;;;5004677;28;20172;-81
2023/03/26 00:23:23;;;;;;;3.73;2.03;;;7.90;99.90;;;;;;4996417;28;20210;-83
2023/03/26 00:25:50;;;;;;;5.30;2.00;;;7.90;99.90;;;;;;5006154;28;20168;-82
2023/03/26 00:28:20;;;;;;;6.37;2.00;;;7.90;99.90;;;;;;5004548;28;20649;-83
2023/03/26 00:30:49;;;;;;;5.77;2.30;;;7.90;99.90;;;;;;5006071;28;20163;-83
2023/03/26 00:33:18;;;;;;;6.20;2.00;;;7.90;99.90;;;;;;5002867;28;20188;-83
2023/03/26 00:35:45;;;;;;;5.17;1.90;;;7.90;99.90;;;;;;5004654;28;20677;-83
2023/03/26 00:38:15;;;;;;;3.87;1.90;;;7.90;99.90;;;;;;5014034;28;20217;-85
2023/03/26 00:40:46;;;;;;;3.27;1.53;;;8.00;99.90;;;;;;5015814;28;20175;-84
2023/03/26 00:43:19;;;;;;;4.50;1.63;;;8.00;99.90;;;;;;4998198;28;20265;-84
2023/03/26 00:45:50;;;;;;;4.43;2.03;;;8.00;99.90;;;;;;5015773;28;20163;-82
2023/03/26 00:48:16;;;;;;;4.60;2.10;;;8.00;99.90;;;;;;5014759;28;20181;-83
2023/03/26 00:50:45;;;;;;;3.17;1.90;;;7.90;99.90;;;;;;5015240;28;20210;-84
2023/03/26 00:53:12;;;;;;;7.13;1.97;;;8.00;99.90;;;;;;4998160;28;20183;-83
2023/03/26 00:55:42;;;;;;;5.63;1.63;;;8.00;99.90;;;;;;5015891;28;20700;-83
2023/03/26 00:58:09;;;;;;;8.07;2.10;;;8.00;99.90;;;;;;5015496;28;20180;-83
2023/03/26 01:00:38;;;;;;;7.33;1.87;;;8.00;99.90;;;;;;5015104;28;20232;-83
2023/03/26 01:03:05;;;;;;;5.00;1.60;;;7.90;99.90;;;;;;4984633;28;20262;-83
2023/03/26 01:05:33;;;;;;;7.27;1.93;;;7.90;99.90;;;;;;4995791;28;20191;-83
2023/03/26 01:08:03;;;;;;;4.73;1.83;;;7.90;99.90;;;;;;4995597;28;20187;-82
2023/03/26 01:10:28;;;;;;;3.43;2.00;;;7.80;99.90;;;;;;4995553;28;20222;-84
2023/03/26 01:12:54;;;;;;;5.00;1.70;;;7.80;99.90;;;;;;4995425;28;20532;-83
2023/03/26 01:15:20;;;;;;;4.23;1.80;;;7.80;99.90;;;;;;4995272;28;20187;-83
2023/03/26 01:17:50;;;;;;;2.93;1.80;;;7.90;99.90;;;;;;4995151;28;20294;-83
2023/03/26 01:20:25;;;;;;;4.20;1.90;;;8.00;99.90;;;;;;4995575;28;20172;-84
2023/03/26 01:22:55;;;;;;;3.87;1.80;;;7.90;99.90;;;;;;4995553;28;20199;-83
2023/03/26 01:25:24;;;;;;;2.93;1.50;;;8.00;99.90;;;;;;4995395;28;20171;-83
2023/03/26 01:27:53;;;;;;;3.10;1.73;;;8.00;99.90;;;;;;4995367;28;20802;-83
2023/03/26 01:30:32;;;;;;;7.43;2.37;;;8.00;99.90;;;;;;4995510;28;20176;-84
2023/03/26 01:33:12;;;;;;;4.30;1.77;;;8.00;99.90;;;;;;4994954;28;20184;-85
2023/03/26 01:36:09;;;;;;;7.13;2.00;;;8.10;99.90;;;;;;4977841;28;20175;-83
2023/03/26 01:38:52;;;;;;;2.70;1.40;;;8.20;99.90;;;;;;4995366;28;20559;-84
2023/03/26 01:41:42;;;;;;;6.63;1.60;;;8.10;99.90;;;;;;4977698;28;20614;-84
2023/03/26 01:44:17;;;;;;;6.33;2.03;;;8.10;99.90;;;;;;4977616;28;20254;-84
2023/03/26 01:46:45;;;;;;;6.70;1.63;;;8.10;99.90;;;;;;4995080;28;20222;-83
2023/03/26 01:49:12;;;;;;;5.17;1.83;;;8.10;99.90;;;;;;4994620;28;20176;-83
2023/03/26 01:51:39;;;;;;;8.70;2.07;;;8.10;99.90;;;;;;4994678;28;20199;-85
2023/03/26 01:54:09;;;;;;;6.33;1.90;;;8.10;99.90;;;;;;4977682;28;20188;-82
2023/03/26 01:56:58;;;;;;;6.63;1.90;;;8.10;99.90;;;;;;4994783;28;20180;-83
2023/03/26 01:59:23;;;;;;;6.67;1.90;;;8.10;99.90;;;;;;4994638;28;20606;-84
2023/03/26 02:02:06;;;;;;;8.17;2.10;;;8.10;99.90;;;;;;4994337;28;20235;-83
2023/03/26 02:04:42;;;;;;;2.70;1.40;;;8.10;99.90;;;;;;4994553;28;20168;-83
2023/03/26 02:07:20;;;;;;;5.20;1.43;;;8.00;99.90;;;;;;4977296;28;20515;-83
2023/03/26 02:09:54;;;;;;;7.30;1.80;;;8.00;99.90;;;;;;4994470;28;20250;-83
2023/03/26 02:12:22;;;;;;;3.40;1.40;;;8.00;99.90;;;;;;4994723;28;20168;-84
2023/03/26 02:14:48;;;;;;;4.33;1.47;;;7.90;99.90;;;;;;4994609;28;20176;-83
2023/03/26 02:17:15;;;;;;;8.37;1.87;;;7.90;99.90;;;;;;4994472;28;20247;-85
2023/03/26 02:19:41;;;;;;;4.00;1.50;;;7.90;99.90;;;;;;4976689;28;20187;-84
2023/03/26 02:22:10;;;;;;;5.43;1.50;;;8.10;99.90;;;;;;4994405;28;20215;-83
2023/03/26 02:24:37;;;;;;;6.37;1.53;;;8.10;99.90;;;;;;4994492;28;20226;-83
2023/03/26 02:27:06;;;;;;;6.17;1.53;;;8.00;99.90;;;;;;4994528;28;20172;-83
2023/03/26 02:29:37;;;;;;;3.87;1.30;;;7.90;99.90;;;;;;4993348;28;20234;-83
2023/03/26 02:32:04;;;;;;;3.60;1.37;;;7.90;99.90;;;;;;4994111;28;20174;-83
2023/03/26 02:34:30;;;;;;;3.87;1.33;;;7.90;99.90;;;;;;4994104;28;20234;-82
2023/03/26 02:36:56;;;;;;;7.67;1.50;;;7.80;99.90;;;;;;4994250;28;20612;-82
2023/03/26 02:39:22;;;;;;;6.80;1.40;;;7.80;99.90;;;;;;4993811;28;20172;-83
2023/03/26 02:41:48;;;;;;;4.07;0.83;;;7.80;99.90;;;;;;4993869;28;20287;-83
2023/03/26 02:44:14;;;;;;;3.63;1.10;;;7.70;99.90;;;;;;4994497;28;20274;-83
2023/03/26 02:46:40;;;;;;;5.53;1.30;;;7.70;99.90;;;;;;4993853;28;20586;-82
2023/03/26 02:49:05;;;;;;;5.50;1.30;;;7.70;99.90;;;;;;4993934;28;20176;-82
2023/03/26 02:51:33;;;;;;;4.83;1.23;;;7.60;99.90;;;;;;4976482;28;20176;-82
2023/03/26 02:54:00;;;;;;;4.43;1.17;;;7.50;99.90;;;;;;4976623;28;20276;-81
2023/03/26 02:56:26;;;;;;;6.20;1.30;;;7.50;99.90;;;;;;4994250;28;20171;-83
2023/03/26 02:58:52;;;;;;;4.53;1.03;;;7.50;99.90;;;;;;4994093;28;20178;-83
2023/03/26 03:01:18;;;;;;;4.87;1.40;;;7.50;99.90;;;;;;4993579;28;20191;-82
2023/03/26 03:03:46;;;;;;;1.63;0.87;;;7.50;99.90;;;;;;4975508;28;20581;-82
2023/03/26 03:06:12;;;;;;;5.23;1.70;;;7.40;99.90;;;;;;4993910;28;20175;-82
2023/03/26 03:08:37;;;;;;;5.83;1.67;;;7.30;99.90;;;;;;4994009;28;20517;-82
2023/03/26 03:11:08;;;;;;;3.43;1.30;;;7.30;99.90;;;;;;4993870;28;20258;-82
2023/03/26 03:13:33;;;;;;;8.40;1.17;;;7.10;99.90;;;;;;4996749;28;20164;-83
2023/03/26 03:15:59;;;;;;;5.87;1.23;;;7.10;99.90;;;;;;4997980;28;20195;-83
2023/03/26 03:18:25;;;;;;;3.83;1.63;;;7.10;99.90;;;;;;4979923;28;20239;-82
2023/03/26 03:20:52;;;;;;;6.73;1.60;;;7.00;99.90;;;;;;4980243;28;20279;-83
2023/03/26 03:23:18;;;;;;;3.03;1.23;;;7.00;99.90;;;;;;4997690;28;20204;-83
2023/03/26 03:25:44;;;;;;;3.23;0.90;;;7.00;99.90;;;;;;4997745;28;20183;-83
2023/03/26 03:28:10;;;;;;;5.13;1.30;;;7.00;99.90;;;;;;4997668;28;20270;-82
2023/03/26 03:30:36;;;;;;;6.07;1.30;;;7.00;99.90;;;;;;4997457;28;20230;-83
2023/03/26 03:33:02;;;;;;;3.80;1.00;;;6.90;99.90;;;;;;4997167;28;20219;-82
2023/03/26 03:35:28;;;;;;;3.40;1.50;;;6.90;99.90;;;;;;4997347;28;20296;-83
2023/03/26 03:37:58;;;;;;;4.10;1.10;;;6.90;99.90;;;;;;4979864;28;20684;-82
2023/03/26 03:40:24;;;;;;;4.57;1.03;;;6.90;99.90;;;;;;4979765;28;20550;-83
2023/03/26 03:42:50;;;;;;;3.03;0.90;;;6.90;99.90;;;;;;4997279;28;20208;-82
2023/03/26 03:45:16;;;;;;;3.20;0.87;;;6.90;99.90;;;;;;4997198;28;20233;-82
2023/03/26 03:47:42;;;;;;;5.97;1.37;;;6.90;99.90;;;;;;4997044;28;20618;-82
2023/03/26 03:50:08;;;;;;;5.33;1.07;;;6.90;99.90;;;;;;4979707;28;20214;-82
2023/03/26 03:52:34;;;;;;;3.97;0.93;;;6.90;99.90;;;;;;4997307;28;20196;-82
2023/03/26 03:54:59;;;;;;;3.83;1.10;;;6.90;99.90;;;;;;4997345;28;20210;-83
2023/03/26 03:57:26;;;;;;;3.13;0.90;;;6.80;99.90;;;;;;4997147;28;20223;-82
2023/03/26 03:59:52;;;;;;;6.00;1.47;;;6.80;99.90;;;;;;4979466;28;20226;-83
2023/03/26 04:02:41;;;;;;;4.47;1.30;;;6.90;99.90;;;;;;4996605;28;20596;-83
2023/03/26 04:05:05;;;;;;;2.70;0.80;;;6.80;99.90;;;;;;4996302;28;20202;-82
2023/03/26 04:07:31;;;;;;;4.43;0.90;;;6.80;99.90;;;;;;4979530;28;20172;-82
2023/03/26 04:09:58;;;;;;;8.43;1.13;;;6.70;99.90;;;;;;4996561;28;20180;-83
2023/03/26 04:12:27;;;;;;;7.50;1.20;;;6.70;99.90;;;;;;4996804;28;20384;-82
2023/03/26 04:14:53;;;;;;;4.73;1.03;;;6.60;99.90;;;;;;4996812;28;20204;-82
2023/03/26 04:17:20;;;;;;;6.70;1.10;;;6.60;99.90;;;;;;4996433;28;20262;-83
2023/03/26 04:19:46;;;;;;;4.37;0.87;;;6.60;99.90;;;;;;4996551;28;20183;-83
2023/03/26 04:22:12;;;;;;;3.73;0.93;;;6.60;99.90;;;;;;4996625;28;20191;-82
2023/03/26 04:24:41;;;;;;;5.47;1.23;;;6.60;99.90;;;;;;4996188;28;20180;-83
2023/03/26 04:27:11;;;;;;;4.07;0.77;;;6.60;99.90;;;;;;4996636;28;20179;-82
2023/03/26 04:29:43;;;;;;;4.07;0.90;;;6.60;99.90;;;;;;4978869;28;20172;-82
2023/03/26 04:32:25;;;;;;;2.87;0.80;;;6.50;99.90;;;;;;4996774;28;20199;-83
2023/03/26 04:34:51;;;;;;;5.47;1.20;;;6.60;99.90;;;;;;4996485;28;20206;-82
2023/03/26 04:37:26;;;;;;;4.37;1.00;;;6.60;99.90;;;;;;4996277;28;20172;-82
2023/03/26 04:39:53;;;;;;;5.13;1.40;;;6.50;99.90;;;;;;4995908;28;20163;-82
2023/03/26 04:42:19;;;;;;;3.40;0.83;;;6.60;99.90;;;;;;4977953;28;20210;-82
2023/03/26 04:44:49;;;;;;;7.87;1.20;;;6.70;99.90;;;;;;4995851;28;20172;-82
2023/03/26 04:47:16;;;;;;;6.53;1.10;;;6.70;99.90;;;;;;4996190;28;20611;-82
2023/03/26 04:49:43;;;;;;;5.23;1.07;;;6.60;99.90;;;;;;4996029;28;20618;-82
2023/03/26 04:52:11;;;;;;;3.90;1.03;;;6.70;99.90;;;;;;4996185;28;20180;-82
2023/03/26 04:54:37;;;;;;;3.23;1.13;;;6.70;99.90;;;;;;4978735;28;20180;-83
2023/03/26 04:57:08;;;;;;;3.40;1.00;;;6.70;99.90;;;;;;4996274;28;20176;-83
2023/03/26 04:59:34;;;;;;;3.63;0.93;;;6.70;99.90;;;;;;4996313;28;20275;-80
2023/03/26 05:02:01;;;;;;;1.30;1.00;;;6.70;99.90;;;;;;4995646;28;20203;-81
2023/03/26 05:04:32;;;;;;;5.10;0.90;;;6.70;99.90;;;;;;4995784;28;20199;-83
2023/03/26 05:06:59;;;;;;;6.00;0.90;;;6.70;99.90;;;;;;4995922;28;20160;-83
2023/03/26 05:09:26;;;;;;;5.50;1.10;;;6.70;99.90;;;;;;4995951;28;20174;-83
2023/03/26 05:11:52;;;;;;;3.53;1.00;;;6.70;99.90;;;;;;4995742;28;20229;-84
2023/03/26 05:14:18;;;;;;;2.90;0.83;;;6.70;99.90;;;;;;4995704;28;20164;-82
2023/03/26 05:16:46;;;;;;;4.23;1.03;;;6.80;99.90;;;;;;4978060;28;20199;-82
2023/03/26 05:19:12;;;;;;;2.63;0.97;;;6.80;99.90;;;;;;4977842;28;20216;-83
2023/03/26 05:21:38;;;;;;;3.37;1.00;;;6.80;99.90;;;;;;5003597;28;20306;-82
2023/03/26 05:24:05;;;;;;;4.67;0.93;;;6.80;99.90;;;;;;5011992;28;20183;-83
2023/03/26 05:26:31;;;;;;;2.30;1.13;;;6.80;99.90;;;;;;4997729;28;20190;-82
2023/03/26 05:28:57;;;;;;;6.37;1.00;;;6.80;99.90;;;;;;5015038;28;20198;-83
2023/03/26 05:31:23;;;;;;;3.60;1.27;;;6.80;99.90;;;;;;4997359;28;20614;-83
2023/03/26 05:33:49;;;;;;;5.83;0.90;;;6.90;99.90;;;;;;4997441;28;20690;-83
2023/03/26 05:36:16;;;;;;;3.23;1.03;;;6.90;99.90;;;;;;4994574;28;20559;-83
2023/03/26 05:38:48;;;;;;;4.60;1.50;;;6.90;99.90;;;;;;4995043;28;20183;-82
2023/03/26 05:41:14;;;;;;;3.80;1.10;;;7.00;99.90;;;;;;4995061;28;20169;-83
2023/03/26 05:43:40;;;;;;;3.70;0.90;;;7.00;99.90;;;;;;4977057;28;20214;-83
2023/03/26 05:46:06;;;;;;;3.50;0.90;;;7.00;99.90;;;;;;4995257;28;20180;-83
2023/03/26 05:48:32;;;;;;;6.50;1.40;;;7.00;99.90;;;;;;4977338;28;20199;-82
2023/03/26 05:50:58;;;;;;;4.67;1.20;;;7.10;99.90;;;;;;4994979;28;20183;-82
2023/03/26 05:53:26;;;;;;;2.77;0.90;;;7.00;99.90;;;;;;4977701;28;20218;-83
2023/03/26 05:55:56;;;;;;;7.23;1.70;;;7.10;99.90;;;;;;4977432;28;20276;-83
2023/03/26 05:58:33;;;;;;;5.27;1.83;;;7.10;99.90;;;;;;4995031;28;20164;-83
2023/03/26 06:01:04;;;;;;;5.40;1.47;;;7.10;99.90;;;;;;4994768;28;20163;-83
2023/03/26 06:03:39;;;;;;;3.80;1.03;;;7.10;99.90;;;;;;4994376;28;20219;-83
2023/03/26 06:06:09;;;;;;;2.63;1.10;;;7.20;99.90;;;;;;4995032;28;20644;-85
2023/03/26 06:08:35;;;;;;;4.83;1.00;;;7.20;99.90;;;;;;4994662;28;20182;-83
2023/03/26 06:11:04;;;;;;;5.63;1.40;;;7.30;99.90;;;;;;4994453;28;20176;-83
2023/03/26 06:13:30;;;;;;;3.67;1.07;;;7.30;99.90;;;;;;4994576;28;20184;-82
2023/03/26 06:15:57;;;;;;;6.80;1.00;;;7.30;99.90;;;;;;4994753;28;20208;-83
2023/03/26 06:18:23;;;;;;;4.60;1.00;;;7.40;99.90;;;;;;4994293;28;20220;-83
2023/03/26 06:20:50;;;;;;;5.90;0.93;;;7.40;99.90;;;;;;4994346;28;20183;-83
2023/03/26 06:23:16;;;;;;;3.23;0.80;;;7.50;99.90;;;;;;5002514;28;20218;-82
2023/03/26 06:25:46;;;;;;;5.00;0.93;;;7.50;99.90;;;;;;4996230;28;20171;-84
2023/03/26 06:28:12;;;;;;;5.57;1.70;;;7.60;99.90;;;;;;5014035;28;20633;-83
2023/03/26 06:30:39;;;;;;;2.27;0.80;;;7.50;99.90;;;;;;5010611;28;20244;-84
2023/03/26 06:33:05;;;;;;;5.20;1.07;;;7.70;99.90;;;;;;4994265;28;20184;-83
2023/03/26 06:35:31;;;;;;;3.50;1.00;;;7.70;99.90;;;;;;4993969;28;20175;-83
2023/03/26 06:37:58;;;;;;;4.63;1.37;;;7.70;99.90;;;;;;4993240;28;20518;-83
2023/03/26 06:40:24;;;;;;;7.50;1.00;;;7.70;99.90;;;;;;4993571;28;20512;-83
2023/03/26 06:42:50;;;;;;;4.93;1.00;;;7.80;99.90;;;;;;4975542;28;20216;-83
2023/03/26 06:45:15;;;;;;;3.60;1.20;;;7.80;99.90;;;;;;4976617;28;20186;-85
2023/03/26 06:47:41;;;;;;;4.77;1.13;;;7.80;99.90;;;;;;4980187;28;20188;-84
2023/03/26 06:50:07;;;;;;;5.43;1.47;;;7.80;99.90;;;;;;5013358;28;20186;-84
2023/03/26 06:52:33;;;;;;;2.87;1.17;;;7.80;99.90;;;;;;5013375;28;20263;-85
2023/03/26 06:54:59;;;;;;;8.03;1.40;;;7.80;99.90;;;;;;4993018;28;20282;-84
2023/03/26 06:57:24;;;;;;;6.17;1.33;;;7.90;99.90;;;;;;4993918;28;20234;-85
2023/03/26 06:59:50;;;;;;;2.27;1.13;;;7.80;99.90;;;;;;4976357;28;20191;-84
2023/03/26 07:02:16;;;;;;;9.87;1.53;;;7.90;99.90;;;;;;4977353;28;20211;-84
2023/03/26 07:04:41;;;;;;;5.40;1.10;;;8.00;99.90;;;;;;5002922;28;20186;-84
2023/03/26 07:07:07;;;;;;;8.07;1.20;;;8.00;99.90;;;;;;4989344;28;20234;-84
2023/03/26 07:09:33;;;;;;;3.57;1.10;;;8.00;99.90;;;;;;4998886;28;20503;-85
2023/03/26 07:11:58;;;;;;;2.93;1.10;;;8.00;99.90;;;;;;4993977;28;20198;-85
2023/03/26 07:14:26;;;;;;;5.70;1.20;;;8.10;99.90;;;;;;4993822;28;20234;-85
2023/03/26 07:16:52;;;;;;;5.43;1.30;;;8.20;99.90;;;;;;4976056;28;20191;-85
2023/03/26 07:19:19;;;;;;;5.43;1.20;;;8.20;99.90;;;;;;4993992;28;20200;-86
2023/03/26 07:21:45;;;;;;;5.17;1.50;;;8.30;99.90;;;;;;4995836;28;20230;-83
2023/03/26 07:24:12;;;;;;;4.97;1.40;;;8.30;99.90;;;;;;4986706;28;20529;-85
2023/03/26 07:26:57;;;;;;;4.87;1.27;;;8.40;99.90;;;;;;5013370;28;20170;-84
2023/03/26 07:29:44;;;;;;;3.83;1.40;;;8.40;99.90;;;;;;5013392;28;20591;-85
2023/03/26 07:32:22;;;;;;;3.03;1.30;;;8.40;99.90;;;;;;5013442;28;20194;-85
2023/03/26 07:35:06;;;;;;;5.70;1.43;;;8.40;99.90;;;;;;5013301;28;20220;-84
2023/03/26 07:37:40;;;;;;;5.50;1.37;;;8.40;99.90;;;;;;5007549;28;20242;-83
2023/03/26 07:40:14;;;;;;;6.27;1.10;;;8.40;99.90;;;;;;4999577;28;20164;-84
2023/03/26 07:43:12;;;;;;;3.87;1.40;;;8.50;99.90;;;;;;5001890;28;20195;-84
2023/03/26 07:45:44;;;;;;;6.20;1.40;;;8.50;99.90;;;;;;5003333;28;20177;-84
2023/03/26 07:48:14;;;;;;;5.77;1.30;;;8.50;99.90;;;;;;4999087;28;20211;-84
2023/03/26 07:50:40;;;;;;;5.27;1.30;;;8.60;99.90;;;;;;5001787;28;20669;-84
2023/03/26 07:53:06;;;;;;;4.43;1.20;;;8.60;99.90;;;;;;4975621;28;20192;-85
2023/03/26 07:55:32;;;;;;;4.53;1.33;;;8.80;99.90;;;;;;4993554;28;20238;-84
2023/03/26 07:58:36;;;;;;;3.00;1.10;;;8.90;99.90;;;;;;4994035;28;20203;-85
2023/03/26 08:01:14;;;;;;;4.97;1.20;;;8.90;99.90;;;;;;4997014;28;20171;-84
2023/03/26 08:04:19;;;;;;;6.30;1.33;;;8.90;99.90;;;;;;4999424;28;20203;-83
2023/03/26 08:06:54;;;;;;;7.13;1.50;;;8.90;99.90;;;;;;4999873;28;20172;-84
2023/03/26 08:09:33;;;;;;;3.78;1.40;;;9.00;99.90;;;;;;4979099;28;20172;-85
2023/03/26 08:12:29;;;;;;;6.40;1.20;;;9.10;99.90;;;;;;4996729;28;20510;-84
2023/03/26 08:15:00;;;;;;;2.90;1.20;;;9.10;99.90;;;;;;4959866;28;20267;-84
2023/03/26 08:17:41;;;;;;;6.30;1.40;;;9.10;99.90;;;;;;4977178;28;20608;-85
2023/03/26 08:20:30;;;;;;;5.37;1.10;;;9.10;99.90;;;;;;4959800;28;20172;-84
2023/03/26 08:23:11;;;;;;;2.77;1.07;;;9.20;99.90;;;;;;4979490;28;20204;-85
2023/03/26 08:25:47;;;;;;;6.40;1.43;;;9.10;99.90;;;;;;4979283;28;20172;-85
2023/03/26 08:28:17;;;;;;;3.93;0.90;;;9.20;99.90;;;;;;4979013;28;20184;-84
2023/03/26 08:30:43;;;;;;;8.10;1.20;;;9.30;99.90;;;;;;4996401;28;20168;-84
2023/03/26 08:33:18;;;;;;;4.05;0.98;;;9.30;99.90;;;;;;4996221;28;20190;-85
2023/03/26 08:35:44;;;;;;;3.47;1.20;;;9.40;99.90;;;;;;4996708;28;20560;-85
2023/03/26 08:38:12;;;;;;;2.40;0.80;;;9.40;99.90;;;;;;4996590;28;20615;-85
2023/03/26 08:41:10;;;;;;;3.63;0.90;;;9.40;99.90;;;;;;4996102;28;20211;-84
2023/03/26 08:44:13;;;;;;;8.83;1.00;;;9.40;99.90;;;;;;4978657;28;20223;-84
2023/03/26 08:46:45;;;;;;;4.38;1.02;;;9.40;99.90;;;;;;4996780;28;20622;-85
2023/03/26 08:49:24;;;;;;;7.72;1.10;;;9.50;99.90;;;;;;4995592;28;20243;-84
2023/03/26 08:52:05;;;;;;;4.88;1.10;;;9.60;99.90;;;;;;4995967;28;20210;-85
2023/03/26 08:54:43;;;;;;;2.58;1.00;;;9.60;99.90;;;;;;4978237;28;20618;-84
2023/03/26 08:57:36;;;;;;;5.18;1.95;;;9.70;99.90;;;;;;4978708;28;20175;-85
2023/03/26 09:00:16;;;;;;;6.22;1.10;;;9.70;99.90;;;;;;4995819;28;20247;-84
2023/03/26 09:02:54;;;;;;;6.07;1.05;;;9.90;99.90;;;;;;4977439;28;20199;-85
2023/03/26 09:05:26;;;;;;;2.42;0.70;;;9.90;99.90;;;;;;4978007;28;20202;-84
2023/03/26 09:08:19;;;;;;;4.93;1.02;;;9.80;99.90;;;;;;4977963;28;20180;-84
2023/03/26 09:10:58;;;;;;;5.93;1.00;;;9.70;99.90;;;;;;4994361;28;20180;-85
2023/03/26 09:13:49;;;;;;;5.03;1.30;;;9.70;99.90;;;;;;4974523;28;20318;-84
2023/03/26 09:16:33;;;;;;;4.20;1.08;;;9.70;99.90;;;;;;4984281;28;20270;-83
2023/03/26 09:19:27;;;;;;;6.47;1.58;;;9.60;99.90;;;;;;4985606;28;20610;-83
2023/03/26 09:22:10;;;;;;;3.33;1.30;;;9.60;99.90;;;;;;4971494;28;20177;-84
2023/03/26 09:25:17;;;;;;;3.97;1.60;;;9.80;99.90;;;;;;4975686;28;20339;-83
2023/03/26 09:27:45;;;;;;;7.68;1.48;;;9.80;99.90;;;;;;4875660;29;20191;-83
2023/03/26 09:30:20;;;;;;;5.35;1.42;;;9.70;99.90;;;;;;4886297;29;20234;-85
2023/03/26 09:33:10;;;;;;;6.72;1.50;;;9.70;99.90;;;;;;4945835;28;20592;-83
2023/03/26 09:35:53;;;;;;;3.22;0.90;;;9.70;99.90;;;;;;4999529;28;20195;-82
2023/03/26 09:38:40;;;;;;;10.33;1.77;;;9.60;99.90;;;;;;4988188;28;20190;-82
2023/03/26 09:41:15;;;;;;;7.30;1.92;;;9.50;99.90;;;;;;4976881;28;20190;-84
2023/03/26 09:43:54;;;;;;;4.95;1.30;;;9.40;99.90;;;;;;4994322;28;20227;-83
2023/03/26 09:46:41;;;;;;;5.97;1.58;;;9.30;99.90;;;;;;4975848;28;20192;-83
2023/03/26 09:49:14;;;;;;;6.13;2.03;;;9.30;99.90;;;;;;4988512;28;20282;-84
2023/03/26 09:51:57;;;;;;;9.30;1.77;;;9.10;99.90;;;;;;4990966;28;20184;-83
2023/03/26 09:54:39;;;;;;;4.27;1.50;;;9.10;99.90;;;;;;4975703;28;20315;-84
2023/03/26 09:57:29;;;;;;;5.40;2.13;;;9.20;99.90;;;;;;4977263;28;20184;-84
2023/03/26 10:00:25;;;;;;;9.67;1.77;;;9.30;99.90;;;;;;4964491;28;20205;-83
2023/03/26 10:03:24;;;;;;;5.93;1.67;;;9.30;99.90;;;;;;4979634;28;20223;-84
2023/03/26 10:05:49;;;;;;;4.72;1.60;;;9.50;99.90;;;;;;4993539;28;20582;-84
2023/03/26 10:08:33;;;;;;;7.07;1.37;;;9.60;99.90;;;;;;4975555;28;20286;-83
2023/03/26 10:11:15;;;;;;;6.20;1.93;;;9.60;99.90;;;;;;4994443;28;20207;-84
2023/03/26 10:14:21;;;;;;;4.05;1.60;;;9.70;99.90;;;;;;4991799;28;20186;-84
2023/03/26 10:17:01;;;;;;;3.92;1.35;;;9.70;99.90;;;;;;4980845;28;20187;-84
2023/03/26 10:20:08;;;;;;;4.68;1.73;;;9.80;99.90;;;;;;4965834;28;20199;-83
2023/03/26 10:22:50;;;;;;;8.07;1.92;;;9.90;99.90;;;;;;4990193;28;20646;-82
2023/03/26 10:25:44;;;;;;;5.68;1.60;;;9.90;99.90;;;;;;4973659;28;20199;-84
2023/03/26 10:28:20;;;;;;;9.93;1.67;;;10.00;99.90;;;;;;4976384;28;20630;-83
2023/03/26 10:31:02;;;;;;;7.32;1.73;;;10.00;99.90;;;;;;4994102;28;20180;-84
2023/03/26 10:33:49;;;;;;;6.32;1.50;;;10.10;99.90;;;;;;4988090;28;20180;-83
2023/03/26 10:36:29;;;;;;;4.40;1.10;;;10.30;99.90;;;;;;4976929;28;20188;-84
2023/03/26 10:39:10;;;;;;;6.80;1.42;;;10.40;99.90;;;;;;4978273;28;20188;-82
2023/03/26 10:42:12;;;;;;;6.70;1.30;;;10.50;99.90;;;;;;4985769;28;20267;-83
2023/03/26 10:45:20;;;;;;;4.60;1.73;;;10.40;99.90;;;;;;4976259;28;20203;-83
2023/03/26 10:47:51;;;;;;;4.40;1.20;;;10.60;99.90;;;;;;4912908;29;20680;-82
2023/03/26 10:50:34;;;;;;;6.20;1.35;;;10.80;99.90;;;;;;4991842;28;20184;-84
2023/03/26 10:53:09;;;;;;;7.85;1.52;;;11.10;99.90;;;;;;4983758;28;20266;-84
2023/03/26 10:55:40;;;;;;;4.97;1.40;;;11.00;99.90;;;;;;4997263;28;20273;-86
2023/03/26 10:58:24;;;;;;;3.30;1.10;;;10.90;99.90;;;;;;5008443;28;20645;-83
2023/03/26 11:01:04;;;;;;;4.90;1.65;;;10.90;99.90;;;;;;4957126;28;20209;-83
2023/03/26 11:03:50;;;;;;;8.20;1.70;;;10.70;99.90;;;;;;4984293;28;20211;-83
2023/03/26 11:06:41;;;;;;;6.82;1.40;;;10.70;99.90;;;;;;4974200;28;20278;-84
2023/03/26 11:09:34;;;;;;;4.50;1.20;;;10.80;99.90;;;;;;4993428;28;20646;-83
2023/03/26 11:12:16;;;;;;;3.17;1.02;;;10.90;99.90;;;;;;4975288;28;20219;-84
2023/03/26 11:15:05;;;;;;;5.40;1.13;;;11.00;99.90;;;;;;4987956;28;20262;-84
2023/03/26 11:18:12;;;;;;;6.45;1.38;;;11.00;99.90;;;;;;4974006;28;20219;-84
2023/03/26 11:20:44;;;;;;;7.38;1.77;;;11.00;99.90;;;;;;4984524;28;20279;-85
2023/03/26 11:23:22;;;;;;;7.57;1.35;;;11.00;99.90;;;;;;4991699;28;20734;-84
2023/03/26 11:25:56;;;;;;;5.03;1.45;;;11.10;99.90;;;;;;4992786;28;20176;-83
2023/03/26 11:28:51;;;;;;;4.85;1.55;;;11.00;99.90;;;;;;4993935;28;20156;-84
2023/03/26 11:31:34;;;;;;;7.60;1.77;;;10.90;99.90;;;;;;4974699;28;20238;-85
2023/03/26 11:34:05;;;;;;;5.85;1.65;;;10.90;99.90;;;;;;4986761;28;20191;-84
2023/03/26 11:36:42;;;;;;;7.75;1.80;;;10.80;99.90;;;;;;4960730;28;20266;-84
2023/03/26 11:39:20;;;;;;;14.43;2.33;;;10.80;99.90;;;;;;4960745;28;20199;-84
2023/03/26 11:41:48;;;;;;;5.20;1.55;;;10.80;99.90;;;;;;4985604;28;20198;-85
2023/03/26 11:44:23;;;;;;;5.93;1.60;;;10.80;99.90;;;;;;4977355;28;20630;-84
2023/03/26 11:47:00;;;;;;;5.07;1.50;;;10.80;99.90;;;;;;4996262;28;20482;-85
2023/03/26 11:49:27;;;;;;;3.88;1.35;;;10.90;99.90;;;;;;4960375;28;20187;-84
2023/03/26 11:51:53;;;;;;;4.50;1.48;;;11.10;99.90;;;;;;4969073;28;20619;-85
2023/03/26 11:54:19;;;;;;;4.40;1.45;;;11.20;99.90;;;;;;4969614;28;20195;-85
2023/03/26 11:57:07;;;;;;;5.43;1.33;;;11.20;99.90;;;;;;4995965;28;20195;-82
2023/03/26 11:59:54;;;;;;;7.03;1.73;;;11.40;99.90;;;;;;4976049;28;20604;-84
2023/03/26 12:02:31;;;;;;;6.35;1.67;;;11.40;99.90;;;;;;4960136;28;20306;-84
2023/03/26 12:05:12;;;;;;;3.97;1.25;;;11.50;99.90;;;;;;4965363;28;20210;-84
2023/03/26 12:07:57;;;;;;;5.45;1.30;;;11.40;99.90;;;;;;4979425;28;20207;-84
2023/03/26 12:10:38;;;;;;;3.80;1.48;;;11.30;99.90;;;;;;4960122;28;20615;-84
2023/03/26 12:13:27;;;;;;;6.93;1.38;;;11.30;99.90;;;;;;4967207;28;20627;-84
2023/03/26 12:16:00;;;;;;;5.18;1.48;;;11.30;99.90;;;;;;4993098;28;20188;-82
2023/03/26 12:18:27;;;;;;;6.65;1.48;;;11.30;99.90;;;;;;4994315;28;20242;-83
2023/03/26 12:21:09;;;;;;;2.50;1.20;;;11.40;99.90;;;;;;4978035;28;20231;-84
2023/03/26 12:24:03;;;;;;;4.35;1.17;;;11.30;99.90;;;;;;4977394;28;20219;-84
2023/03/26 12:26:43;;;;;;;4.82;1.67;;;11.20;99.90;;;;;;4989146;28;20785;-84
2023/03/26 12:29:15;;;;;;;5.15;1.35;;;11.10;99.90;;;;;;4969823;28;20196;-83
2023/03/26 12:32:16;;;;;;;4.75;1.33;;;11.10;99.90;;;;;;4959425;28;20188;-84
2023/03/26 12:34:42;;;;;;;4.57;1.27;;;11.10;99.90;;;;;;4916488;29;20197;-83
2023/03/26 12:37:37;;;;;;;4.13;1.30;;;11.00;99.90;;;;;;4981511;28;20192;-84
2023/03/26 12:40:26;;;;;;;8.50;1.73;;;10.90;99.90;;;;;;4995685;28;20647;-82
2023/03/26 12:42:56;;;;;;;4.63;1.25;;;10.70;99.90;;;;;;4965804;28;20209;-83
2023/03/26 12:45:37;;;;;;;4.38;1.45;;;10.60;99.90;;;;;;4988381;28;20195;-85
2023/03/26 12:48:04;;;;;;;6.70;1.98;;;10.40;99.90;;;;;;4968500;28;20191;-84
2023/03/26 12:50:45;;;;;;;6.07;1.42;;;10.40;99.90;;;;;;4958878;28;20208;-83
2023/03/26 12:53:11;;;;;;;6.28;1.70;;;10.40;99.90;;;;;;4978558;28;20187;-84
2023/03/26 12:55:51;;;;;;;6.28;1.80;;;10.40;99.90;;;;;;4992252;28;20660;-83
2023/03/26 12:58:50;;;;;;;4.40;1.48;;;10.30;99.90;;;;;;4995757;28;20230;-83
2023/03/26 13:01:32;;;;;;;5.80;1.60;;;10.30;99.90;;;;;;4975051;28;20180;-84
2023/03/26 13:04:21;;;;;;;7.85;1.52;;;10.30;99.90;;;;;;4976347;28;20651;-83
2023/03/26 13:07:05;;;;;;;4.97;1.30;;;10.30;99.90;;;;;;4964131;28;20191;-84
2023/03/26 13:09:42;;;;;;;8.75;1.65;;;10.20;99.90;;;;;;4970129;28;20570;-83
2023/03/26 13:12:37;;;;;;;6.35;1.15;;;10.30;99.90;;;;;;4993582;28;20626;-82
2023/03/26 13:15:16;;;;;;;6.80;1.40;;;10.30;99.90;;;;;;4976050;28;20187;-84
2023/03/26 13:18:03;;;;;;;3.15;1.20;;;10.40;99.90;;;;;;4984905;28;20682;-83
2023/03/26 13:20:49;;;;;;;7.57;1.23;;;10.50;99.90;;;;;;4955324;28;20204;-83
2023/03/26 13:23:39;;;;;;;10.63;1.88;;;10.60;99.90;;;;;;4976635;28;20669;-84
2023/03/26 13:26:36;;;;;;;6.65;1.48;;;10.60;99.90;;;;;;4958895;28;20553;-84
2023/03/26 13:29:16;;;;;;;6.75;1.70;;;10.60;99.90;;;;;;4996689;28;20191;-83
2023/03/26 13:32:19;;;;;;;7.85;1.77;;;10.70;99.90;;;;;;4997482;28;20180;-83
2023/03/26 13:35:13;;;;;;;4.30;1.70;;;10.70;99.90;;;;;;4995324;28;20383;-84